Time;durP1;ratioP1;P1;durP2;ratioP2;P2;SDS_P1;SDS_P2;PMS_P1;PMS_P2;Temp;Humidity;BMP_temperature;BMP_pressure;BME280_temperature;BME280_humidity;BME280_pressure;Samples;Min_cycle;Max_cycle;Signal;HPM_P1;HPM_P2
2022/07/06 00:01:47;;;;;;;12.35;11.35;;;;;;;;;;4990585;28;20064;-63
2022/07/06 00:04:12;;;;;;;12.30;11.40;;;;;;;;;;4991018;28;20478;-65
2022/07/06 00:06:37;;;;;;;13.07;12.07;;;;;;;;;;4991351;28;20058;-65
2022/07/06 00:09:03;;;;;;;12.52;11.52;;;;;;;;;;4988772;28;20062;-64
2022/07/06 00:11:29;;;;;;;13.95;12.65;;;;;;;;;;4990430;28;20447;-64
2022/07/06 00:13:56;;;;;;;11.77;10.68;;;;;;;;;;4989607;28;20034;-65
2022/07/06 00:16:21;;;;;;;12.70;11.73;;;;;;;;;;4989152;28;20030;-64
2022/07/06 00:18:46;;;;;;;11.38;10.57;;;;;;;;;;4989854;28;20875;-65
2022/07/06 00:21:12;;;;;;;11.50;10.60;;;;;;;;;;4989789;28;20030;-64
2022/07/06 00:23:37;;;;;;;11.20;10.20;;;;;;;;;;4988851;28;20117;-64
2022/07/06 00:26:02;;;;;;;10.40;9.63;;;;;;;;;;4991390;28;20577;-65
2022/07/06 00:28:28;;;;;;;10.80;9.90;;;;;;;;;;4990145;28;20053;-65
2022/07/06 00:30:53;;;;;;;10.63;9.82;;;;;;;;;;4989373;28;20058;-64
2022/07/06 00:33:19;;;;;;;9.93;9.18;;;;;;;;;;4990658;28;20029;-64
2022/07/06 00:35:44;;;;;;;10.27;9.57;;;;;;;;;;5006464;28;20447;-64
2022/07/06 00:38:09;;;;;;;11.07;10.18;;;;;;;;;;4988271;28;20022;-65
2022/07/06 00:40:34;;;;;;;9.32;8.73;;;;;;;;;;4989339;28;20100;-64
2022/07/06 00:43:00;;;;;;;9.75;8.73;;;;;;;;;;4989521;28;20424;-64
2022/07/06 00:45:25;;;;;;;9.70;9.00;;;;;;;;;;4988380;28;20039;-64
2022/07/06 00:47:50;;;;;;;10.15;9.18;;;;;;;;;;5005093;28;20030;-64
2022/07/06 00:50:22;;;;;;;9.95;9.05;;;;;;;;;;4989142;28;20045;-64
2022/07/06 00:52:55;;;;;;;9.90;9.20;;;;;;;;;;5004550;28;20053;-64
2022/07/06 00:55:21;;;;;;;8.60;8.00;;;;;;;;;;4988824;28;20042;-64
2022/07/06 00:57:47;;;;;;;8.23;7.57;;;;;;;;;;4988435;28;20555;-63
2022/07/06 01:00:13;;;;;;;8.13;7.43;;;;;;;;;;4988148;28;20038;-64
2022/07/06 01:02:39;;;;;;;9.40;8.70;;;;;;;;;;4988458;28;20113;-64
2022/07/06 01:05:05;;;;;;;8.65;7.95;;;;;;;;;;4989273;28;20384;-64
2022/07/06 01:07:30;;;;;;;9.55;8.60;;;;;;;;;;4988552;28;20065;-64
2022/07/06 01:09:56;;;;;;;9.02;8.32;;;;;;;;;;4987842;28;20069;-65
2022/07/06 01:12:21;;;;;;;9.70;8.88;;;;;;;;;;4988468;28;20028;-66
2022/07/06 01:14:47;;;;;;;8.43;7.82;;;;;;;;;;4988843;28;20136;-65
2022/07/06 01:17:13;;;;;;;8.38;7.72;;;;;;;;;;4988249;28;20132;-65
2022/07/06 01:19:38;;;;;;;8.88;8.20;;;;;;;;;;4989708;28;20070;-66
2022/07/06 01:22:03;;;;;;;8.30;7.80;;;;;;;;;;4987816;28;20118;-65
2022/07/06 01:24:29;;;;;;;8.30;7.80;;;;;;;;;;4988259;28;20487;-66
2022/07/06 01:26:54;;;;;;;7.13;6.65;;;;;;;;;;4989464;28;20034;-65
2022/07/06 01:29:19;;;;;;;8.00;7.40;;;;;;;;;;4988538;28;20038;-65
2022/07/06 01:31:49;;;;;;;7.43;7.03;;;;;;;;;;4988964;28;20026;-65
2022/07/06 01:34:15;;;;;;;8.02;7.32;;;;;;;;;;4989590;28;20071;-65
2022/07/06 01:36:40;;;;;;;7.13;6.50;;;;;;;;;;4990256;28;20359;-65
2022/07/06 01:39:07;;;;;;;5.90;5.45;;;;;;;;;;4989348;28;20544;-65
2022/07/06 01:41:33;;;;;;;6.45;5.57;;;;;;;;;;4989570;28;20125;-65
2022/07/06 01:43:58;;;;;;;6.15;5.63;;;;;;;;;;4988700;28;20030;-65
2022/07/06 01:46:23;;;;;;;6.85;6.35;;;;;;;;;;4987940;28;20041;-65
2022/07/06 01:48:48;;;;;;;6.18;5.68;;;;;;;;;;4988110;28;20033;-65
2022/07/06 01:51:14;;;;;;;6.90;6.40;;;;;;;;;;4988887;28;20496;-65
2022/07/06 01:53:39;;;;;;;6.75;6.15;;;;;;;;;;4989085;28;20419;-65
2022/07/06 01:56:04;;;;;;;6.43;5.93;;;;;;;;;;4987141;28;20092;-65
2022/07/06 01:58:30;;;;;;;7.35;6.75;;;;;;;;;;4988129;28;20589;-65
2022/07/06 02:00:55;;;;;;;6.57;6.10;;;;;;;;;;4988576;28;20034;-65
2022/07/06 02:03:20;;;;;;;6.68;6.28;;;;;;;;;;4988908;28;20038;-64
2022/07/06 02:05:46;;;;;;;6.75;6.25;;;;;;;;;;5001831;28;20038;-65
2022/07/06 02:08:11;;;;;;;6.40;5.95;;;;;;;;;;4988493;28;20033;-65
2022/07/06 02:10:36;;;;;;;6.28;5.88;;;;;;;;;;4978615;28;20142;-65
2022/07/06 02:13:02;;;;;;;6.15;5.53;;;;;;;;;;4988360;28;20443;-65
2022/07/06 02:15:28;;;;;;;5.88;5.50;;;;;;;;;;4987339;28;20481;-65
2022/07/06 02:17:53;;;;;;;5.68;5.28;;;;;;;;;;4988492;28;20023;-65
2022/07/06 02:20:18;;;;;;;6.03;4.72;;;;;;;;;;4989532;28;20045;-65
2022/07/06 02:22:43;;;;;;;4.90;4.60;;;;;;;;;;4987604;28;20480;-65
2022/07/06 02:25:09;;;;;;;5.45;5.15;;;;;;;;;;4986459;28;20095;-64
2022/07/06 02:27:34;;;;;;;5.57;5.07;;;;;;;;;;4986370;28;20054;-65
2022/07/06 02:29:59;;;;;;;5.65;5.15;;;;;;;;;;4987494;28;20033;-65
2022/07/06 02:32:25;;;;;;;5.82;5.43;;;;;;;;;;4988219;28;20034;-66
2022/07/06 02:34:50;;;;;;;6.10;5.60;;;;;;;;;;4987242;28;20112;-65
2022/07/06 02:37:15;;;;;;;5.75;5.38;;;;;;;;;;4987386;28;20113;-65
2022/07/06 02:39:41;;;;;;;5.20;4.88;;;;;;;;;;4988511;28;20285;-65
2022/07/06 02:42:06;;;;;;;6.05;5.63;;;;;;;;;;4988620;28;20045;-65
2022/07/06 02:44:31;;;;;;;5.95;5.63;;;;;;;;;;4988655;28;20500;-65
2022/07/06 02:46:56;;;;;;;6.30;5.90;;;;;;;;;;4990713;28;20361;-65
2022/07/06 02:49:22;;;;;;;9.18;5.82;;;;;;;;;;4992457;28;20018;-65
2022/07/06 02:51:47;;;;;;;6.18;5.78;;;;;;;;;;4990431;28;20034;-64
2022/07/06 02:54:12;;;;;;;6.35;5.70;;;;;;;;;;4991411;28;20440;-65
2022/07/06 02:56:37;;;;;;;5.68;5.32;;;;;;;;;;4990997;28;20030;-65
2022/07/06 02:59:03;;;;;;;6.50;6.00;;;;;;;;;;5007101;28;20032;-65
2022/07/06 03:01:28;;;;;;;5.63;5.22;;;;;;;;;;4991025;28;20027;-65
2022/07/06 03:03:53;;;;;;;6.70;6.10;;;;;;;;;;4990884;28;20121;-64
2022/07/06 03:06:18;;;;;;;5.85;5.45;;;;;;;;;;4992230;28;20125;-64
2022/07/06 03:08:44;;;;;;;6.82;6.32;;;;;;;;;;4991212;28;20034;-64
2022/07/06 03:11:09;;;;;;;5.72;5.20;;;;;;;;;;4990070;28;20030;-64
2022/07/06 03:13:34;;;;;;;5.85;5.45;;;;;;;;;;4989599;28;20030;-64
2022/07/06 03:16:00;;;;;;;5.75;5.35;;;;;;;;;;4991595;28;20030;-63
2022/07/06 03:18:25;;;;;;;5.22;4.93;;;;;;;;;;4989756;28;20056;-64
2022/07/06 03:20:50;;;;;;;6.40;4.82;;;;;;;;;;4990844;28;20029;-64
2022/07/06 03:23:15;;;;;;;5.50;5.13;;;;;;;;;;4989807;28;20060;-63
2022/07/06 03:25:41;;;;;;;5.35;4.95;;;;;;;;;;4990818;28;20054;-64
2022/07/06 03:28:06;;;;;;;5.45;5.05;;;;;;;;;;4990452;28;20018;-64
2022/07/06 03:30:31;;;;;;;5.07;4.72;;;;;;;;;;4990580;28;20081;-65
2022/07/06 03:32:56;;;;;;;5.53;5.13;;;;;;;;;;4992288;28;20050;-65
2022/07/06 03:35:22;;;;;;;5.38;4.82;;;;;;;;;;4991543;28;20567;-66
2022/07/06 03:37:47;;;;;;;7.32;4.90;;;;;;;;;;4991182;28;20034;-66
2022/07/06 03:40:13;;;;;;;5.25;4.85;;;;;;;;;;4991610;28;20501;-64
2022/07/06 03:42:39;;;;;;;5.15;4.65;;;;;;;;;;4991106;28;20030;-66
2022/07/06 03:45:04;;;;;;;4.57;4.18;;;;;;;;;;5006077;28;20081;-65
2022/07/06 03:47:30;;;;;;;5.22;4.93;;;;;;;;;;4990064;28;20033;-65
2022/07/06 03:49:55;;;;;;;6.00;5.50;;;;;;;;;;4991327;28;20025;-64
2022/07/06 03:52:20;;;;;;;4.95;4.60;;;;;;;;;;4988591;28;20129;-65
2022/07/06 03:54:45;;;;;;;4.50;4.20;;;;;;;;;;4991698;28;20121;-64
2022/07/06 03:57:13;;;;;;;5.00;4.68;;;;;;;;;;4989149;28;20033;-64
2022/07/06 03:59:38;;;;;;;5.07;4.68;;;;;;;;;;4989749;28;20034;-65
2022/07/06 04:02:03;;;;;;;5.35;5.00;;;;;;;;;;4990104;28;20084;-65
2022/07/06 04:04:29;;;;;;;5.45;5.15;;;;;;;;;;4989496;28;20084;-64
2022/07/06 04:06:54;;;;;;;5.85;5.32;;;;;;;;;;4990068;28;20457;-65
2022/07/06 04:09:19;;;;;;;4.68;4.38;;;;;;;;;;4990580;28;20066;-65
2022/07/06 04:11:44;;;;;;;5.20;4.70;;;;;;;;;;4990703;28;20069;-65
2022/07/06 04:14:10;;;;;;;4.53;4.22;;;;;;;;;;4988912;28;20081;-65
2022/07/06 04:16:38;;;;;;;6.18;5.68;;;;;;;;;;4989301;28;20041;-64
2022/07/06 04:19:03;;;;;;;4.30;4.10;;;;;;;;;;4990394;28;20030;-66
2022/07/06 04:21:28;;;;;;;4.55;3.85;;;;;;;;;;4989311;28;20477;-65
2022/07/06 04:23:53;;;;;;;4.60;4.20;;;;;;;;;;4989581;28;20127;-64
2022/07/06 04:26:19;;;;;;;4.65;4.43;;;;;;;;;;4990819;28;20030;-65
2022/07/06 04:28:44;;;;;;;4.45;4.15;;;;;;;;;;4989501;28;20511;-65
2022/07/06 04:31:09;;;;;;;4.55;4.18;;;;;;;;;;4989207;28;20018;-65
2022/07/06 04:33:34;;;;;;;4.75;4.10;;;;;;;;;;5005427;28;20085;-65
2022/07/06 04:36:00;;;;;;;4.30;3.90;;;;;;;;;;4991449;28;20093;-65
2022/07/06 04:38:25;;;;;;;4.53;4.13;;;;;;;;;;4990259;28;20116;-65
2022/07/06 04:40:50;;;;;;;3.83;3.53;;;;;;;;;;4989084;28;20413;-65
2022/07/06 04:43:15;;;;;;;3.83;3.53;;;;;;;;;;4990799;28;20185;-65
2022/07/06 04:45:41;;;;;;;4.45;3.92;;;;;;;;;;4989800;28;20676;-65
2022/07/06 04:48:08;;;;;;;4.05;3.85;;;;;;;;;;4990249;28;20366;-66
2022/07/06 04:50:33;;;;;;;4.10;3.80;;;;;;;;;;4988517;28;20026;-65
2022/07/06 04:52:58;;;;;;;3.72;3.42;;;;;;;;;;4990035;28;20520;-65
2022/07/06 04:55:23;;;;;;;3.50;3.20;;;;;;;;;;4988672;28;20491;-65
2022/07/06 04:57:51;;;;;;;3.60;3.38;;;;;;;;;;4989990;28;20026;-66
2022/07/06 05:00:16;;;;;;;4.10;3.80;;;;;;;;;;4987370;28;20066;-65
2022/07/06 05:02:42;;;;;;;3.60;3.40;;;;;;;;;;4988519;28;20445;-65
2022/07/06 05:05:10;;;;;;;4.18;3.80;;;;;;;;;;4989382;28;20042;-65
2022/07/06 05:07:39;;;;;;;3.90;3.70;;;;;;;;;;4991407;28;20026;-65
2022/07/06 05:10:05;;;;;;;3.97;3.67;;;;;;;;;;4987557;28;20531;-66
2022/07/06 05:12:30;;;;;;;3.40;3.20;;;;;;;;;;4989169;28;20035;-66
2022/07/06 05:14:55;;;;;;;3.53;3.30;;;;;;;;;;4988884;28;20192;-65
2022/07/06 05:17:20;;;;;;;3.60;3.40;;;;;;;;;;4989150;28;20108;-65
2022/07/06 05:19:45;;;;;;;3.95;3.65;;;;;;;;;;4988375;28;20038;-65
2022/07/06 05:22:11;;;;;;;3.47;3.28;;;;;;;;;;4987802;28;20026;-65
2022/07/06 05:24:36;;;;;;;4.28;3.20;;;;;;;;;;4978813;28;20408;-68
2022/07/06 05:27:01;;;;;;;3.65;3.10;;;;;;;;;;4990203;28;20488;-66
2022/07/06 05:29:26;;;;;;;3.15;3.03;;;;;;;;;;4988857;28;20132;-66
2022/07/06 05:31:52;;;;;;;3.03;2.83;;;;;;;;;;4987824;28;20492;-65
2022/07/06 05:34:17;;;;;;;3.35;3.08;;;;;;;;;;4988283;28;20049;-65
2022/07/06 05:36:43;;;;;;;3.17;2.92;;;;;;;;;;5004075;28;20030;-65
2022/07/06 05:39:08;;;;;;;3.30;3.10;;;;;;;;;;4987951;28;20026;-65
2022/07/06 05:41:33;;;;;;;7.25;3.45;;;;;;;;;;4988219;28;20042;-65
2022/07/06 05:43:58;;;;;;;3.25;3.05;;;;;;;;;;4988763;28;20038;-65
2022/07/06 05:46:24;;;;;;;3.45;3.17;;;;;;;;;;4988802;28;20027;-65
2022/07/06 05:51:33;;;;;;;3.42;3.13;;;;;;;;;;4988895;28;20037;-65
2022/07/06 05:53:58;;;;;;;3.08;2.88;;;;;;;;;;4990028;28;20077;-65
2022/07/06 05:56:23;;;;;;;3.25;2.97;;;;;;;;;;4988472;28;20034;-67
2022/07/06 05:58:49;;;;;;;3.00;2.90;;;;;;;;;;4988591;28;20048;-65
2022/07/06 06:01:14;;;;;;;3.17;3.00;;;;;;;;;;4986374;28;20037;-65
2022/07/06 06:03:39;;;;;;;2.97;2.78;;;;;;;;;;4988008;28;20034;-65
2022/07/06 06:06:04;;;;;;;3.25;3.05;;;;;;;;;;4988446;28;20529;-65
2022/07/06 06:08:30;;;;;;;2.70;2.60;;;;;;;;;;4987227;28;20022;-65
2022/07/06 06:10:58;;;;;;;3.00;2.80;;;;;;;;;;4989124;28;20073;-65
2022/07/06 06:13:23;;;;;;;2.85;2.65;;;;;;;;;;4987749;28;20026;-66
2022/07/06 06:15:48;;;;;;;3.72;3.42;;;;;;;;;;4989386;28;20030;-65
2022/07/06 06:18:16;;;;;;;3.05;2.90;;;;;;;;;;4988212;28;20034;-65
2022/07/06 06:20:41;;;;;;;3.17;2.95;;;;;;;;;;4984890;28;20484;-65
2022/07/06 06:23:07;;;;;;;3.53;3.05;;;;;;;;;;4987310;28;20034;-65
2022/07/06 06:25:33;;;;;;;3.35;3.03;;;;;;;;;;4987936;28;20062;-65
2022/07/06 06:27:59;;;;;;;3.92;2.88;;;;;;;;;;4985722;28;20415;-65
2022/07/06 06:30:24;;;;;;;3.25;3.05;;;;;;;;;;4988867;28;20041;-66
2022/07/06 06:32:50;;;;;;;3.28;3.08;;;;;;;;;;4991190;28;20516;-66
2022/07/06 06:35:15;;;;;;;3.22;3.03;;;;;;;;;;4982760;28;20040;-66
2022/07/06 06:37:41;;;;;;;3.33;3.13;;;;;;;;;;4991618;28;20064;-66
2022/07/06 06:40:07;;;;;;;3.92;3.50;;;;;;;;;;4990670;28;20058;-65
2022/07/06 06:42:35;;;;;;;4.60;4.18;;;;;;;;;;4992799;28;20023;-65
2022/07/06 06:45:00;;;;;;;3.58;3.28;;;;;;;;;;4992719;28;20034;-65
2022/07/06 06:47:25;;;;;;;3.63;3.42;;;;;;;;;;4991029;28;20030;-66
2022/07/06 06:49:50;;;;;;;3.65;3.30;;;;;;;;;;4991794;28;20049;-65
2022/07/06 06:52:16;;;;;;;2.53;2.40;;;;;;;;;;4988505;28;20491;-63
2022/07/06 06:54:41;;;;;;;3.63;3.25;;;;;;;;;;4987219;28;20491;-64
2022/07/06 06:57:06;;;;;;;3.58;3.28;;;;;;;;;;4986786;28;20086;-64
2022/07/06 06:59:31;;;;;;;3.00;2.80;;;;;;;;;;4987052;28;20040;-64
2022/07/06 07:01:57;;;;;;;9.13;3.15;;;;;;;;;;4988105;28;20587;-64
2022/07/06 07:04:22;;;;;;;4.55;3.08;;;;;;;;;;4988628;28;20050;-63
2022/07/06 07:06:48;;;;;;;8.85;3.25;;;;;;;;;;4986074;28;20036;-65
2022/07/06 07:09:13;;;;;;;3.83;3.53;;;;;;;;;;4988967;28;20064;-63
2022/07/06 07:11:38;;;;;;;3.55;2.60;;;;;;;;;;4986878;28;20030;-64
2022/07/06 07:14:05;;;;;;;3.20;2.90;;;;;;;;;;4987188;28;20104;-64
2022/07/06 07:16:30;;;;;;;3.42;3.13;;;;;;;;;;4987127;28;20422;-65
2022/07/06 07:18:55;;;;;;;3.60;3.30;;;;;;;;;;5001507;28;20033;-65
2022/07/06 07:21:21;;;;;;;3.40;3.10;;;;;;;;;;4988016;28;20670;-65
2022/07/06 07:23:46;;;;;;;4.75;3.28;;;;;;;;;;4988528;28;20030;-64
2022/07/06 07:26:11;;;;;;;3.30;3.00;;;;;;;;;;4987187;28;20588;-64
2022/07/06 07:28:37;;;;;;;3.95;3.03;;;;;;;;;;4986776;28;20476;-65
2022/07/06 07:31:02;;;;;;;3.50;3.08;;;;;;;;;;4987095;28;20041;-65
2022/07/06 07:33:27;;;;;;;4.20;3.10;;;;;;;;;;4991190;28;20418;-65
2022/07/06 07:35:53;;;;;;;3.75;3.45;;;;;;;;;;4990354;28;20575;-64
2022/07/06 07:38:18;;;;;;;4.53;3.47;;;;;;;;;;4991046;28;20034;-65
2022/07/06 07:40:43;;;;;;;3.03;2.88;;;;;;;;;;4992899;28;20026;-65
2022/07/06 07:43:08;;;;;;;4.82;3.42;;;;;;;;;;4990535;28;20544;-64
2022/07/06 07:45:34;;;;;;;3.60;3.20;;;;;;;;;;4990983;28;20496;-65
2022/07/06 07:47:59;;;;;;;4.88;3.72;;;;;;;;;;4992135;28;20479;-65
2022/07/06 07:50:24;;;;;;;3.30;3.10;;;;;;;;;;4992261;28;20066;-64
2022/07/06 07:52:49;;;;;;;3.80;3.50;;;;;;;;;;4991469;28;20022;-64
2022/07/06 07:55:15;;;;;;;2.95;2.75;;;;;;;;;;5004665;28;20402;-65
2022/07/06 07:57:40;;;;;;;3.97;3.42;;;;;;;;;;4989960;28;20034;-66
2022/07/06 08:00:05;;;;;;;3.97;3.53;;;;;;;;;;4991168;28;20038;-64
2022/07/06 08:02:30;;;;;;;3.53;3.33;;;;;;;;;;4990955;28;20026;-65
2022/07/06 08:04:56;;;;;;;3.90;3.60;;;;;;;;;;4990169;28;20030;-66
2022/07/06 08:07:21;;;;;;;4.30;3.85;;;;;;;;;;4989979;28;20087;-65
2022/07/06 08:09:46;;;;;;;4.32;3.35;;;;;;;;;;4988905;28;20062;-65
2022/07/06 08:12:12;;;;;;;4.22;2.72;;;;;;;;;;4991318;28;20081;-65
2022/07/06 08:14:40;;;;;;;4.88;3.28;;;;;;;;;;4989835;28;20038;-66
2022/07/06 08:17:05;;;;;;;5.85;3.55;;;;;;;;;;4989590;28;20026;-64
2022/07/06 08:19:31;;;;;;;3.80;3.50;;;;;;;;;;4990291;28;20037;-65
2022/07/06 08:21:56;;;;;;;3.80;3.50;;;;;;;;;;4990117;28;20042;-64
2022/07/06 08:24:21;;;;;;;3.90;3.55;;;;;;;;;;4989440;28;20038;-64
2022/07/06 08:26:47;;;;;;;3.70;3.50;;;;;;;;;;4988785;28;20038;-65
2022/07/06 08:29:12;;;;;;;3.55;3.25;;;;;;;;;;4990015;28;20609;-65
2022/07/06 08:31:37;;;;;;;4.45;3.53;;;;;;;;;;4989920;28;20480;-65
2022/07/06 08:34:05;;;;;;;3.97;3.78;;;;;;;;;;4990452;28;20038;-65
2022/07/06 08:36:30;;;;;;;3.88;3.58;;;;;;;;;;4988381;28;20560;-65
2022/07/06 08:38:56;;;;;;;4.07;3.78;;;;;;;;;;4990179;28;20037;-66
2022/07/06 08:41:22;;;;;;;3.45;3.25;;;;;;;;;;4988866;28;20026;-66
2022/07/06 08:43:48;;;;;;;3.72;3.42;;;;;;;;;;4990376;28;20041;-65
2022/07/06 08:46:13;;;;;;;3.92;3.67;;;;;;;;;;4990476;28;20030;-65
2022/07/06 08:48:40;;;;;;;4.07;3.78;;;;;;;;;;4988323;28;20062;-65
2022/07/06 08:51:05;;;;;;;4.20;4.00;;;;;;;;;;4989055;28;20030;-65
2022/07/06 08:53:31;;;;;;;4.35;4.05;;;;;;;;;;4991129;28;20555;-65
2022/07/06 08:55:56;;;;;;;4.32;3.42;;;;;;;;;;4989909;28;20544;-65
2022/07/06 08:58:25;;;;;;;4.35;3.95;;;;;;;;;;4990065;28;20353;-65
2022/07/06 09:00:51;;;;;;;3.80;3.53;;;;;;;;;;4990231;28;20041;-65
2022/07/06 09:03:16;;;;;;;4.20;3.97;;;;;;;;;;4987319;28;20022;-65
2022/07/06 09:05:44;;;;;;;4.32;3.92;;;;;;;;;;4988530;28;20038;-65
2022/07/06 09:08:11;;;;;;;4.50;4.10;;;;;;;;;;4987891;28;20089;-66
2022/07/06 09:10:37;;;;;;;4.00;3.80;;;;;;;;;;4988447;28;20046;-65
2022/07/06 09:13:06;;;;;;;6.30;4.47;;;;;;;;;;4989712;28;20161;-65
2022/07/06 09:15:32;;;;;;;4.90;4.50;;;;;;;;;;4990432;28;20026;-65
2022/07/06 09:17:57;;;;;;;4.20;3.80;;;;;;;;;;4988949;28;20022;-66
2022/07/06 09:20:23;;;;;;;4.93;4.53;;;;;;;;;;4990157;28;20373;-66
2022/07/06 09:22:48;;;;;;;5.30;3.72;;;;;;;;;;4988469;28;20088;-66
2022/07/06 09:25:14;;;;;;;4.25;3.90;;;;;;;;;;4989923;28;20144;-66
2022/07/06 09:27:43;;;;;;;4.38;4.07;;;;;;;;;;4989303;28;20065;-65
2022/07/06 09:30:09;;;;;;;3.75;3.55;;;;;;;;;;4986948;28;20465;-66
2022/07/06 09:32:42;;;;;;;3.95;3.65;;;;;;;;;;4988707;28;20186;-65
2022/07/06 09:35:08;;;;;;;4.55;3.90;;;;;;;;;;4989088;28;20033;-65
2022/07/06 09:37:33;;;;;;;4.05;3.78;;;;;;;;;;4989203;28;20037;-64
2022/07/06 09:39:58;;;;;;;3.65;3.45;;;;;;;;;;4987576;28;20046;-65
2022/07/06 09:42:24;;;;;;;3.88;3.58;;;;;;;;;;4987864;28;20034;-64
2022/07/06 09:44:50;;;;;;;4.25;3.78;;;;;;;;;;4988954;28;20385;-65
2022/07/06 09:47:15;;;;;;;3.60;3.30;;;;;;;;;;4989221;28;20049;-65
2022/07/06 09:49:40;;;;;;;4.20;4.00;;;;;;;;;;4989656;28;20030;-65
2022/07/06 09:52:07;;;;;;;4.05;3.67;;;;;;;;;;5003140;28;20030;-65
2022/07/06 09:54:36;;;;;;;4.10;3.67;;;;;;;;;;4988180;28;20037;-64
2022/07/06 09:57:02;;;;;;;5.50;3.78;;;;;;;;;;4988999;28;20053;-65
2022/07/06 09:59:29;;;;;;;4.32;3.92;;;;;;;;;;4990530;28;20548;-65
2022/07/06 10:01:56;;;;;;;4.03;3.60;;;;;;;;;;4988180;28;20027;-65
2022/07/06 10:04:22;;;;;;;3.88;3.60;;;;;;;;;;4989538;28;20440;-65
2022/07/06 10:06:47;;;;;;;4.22;4.03;;;;;;;;;;4988215;28;20169;-65
2022/07/06 10:09:13;;;;;;;4.55;4.15;;;;;;;;;;4987984;28;20054;-65
2022/07/06 10:11:40;;;;;;;4.43;3.70;;;;;;;;;;4986250;28;20412;-65
2022/07/06 10:14:06;;;;;;;3.95;3.55;;;;;;;;;;4989295;28;20128;-65
2022/07/06 10:16:31;;;;;;;3.35;3.10;;;;;;;;;;4989224;28;20456;-65
2022/07/06 10:18:57;;;;;;;3.53;3.17;;;;;;;;;;4988228;28;20569;-65
2022/07/06 10:21:23;;;;;;;3.15;2.92;;;;;;;;;;4987242;28;20077;-65
2022/07/06 10:23:49;;;;;;;4.45;3.90;;;;;;;;;;4988179;28;20480;-65
2022/07/06 10:26:15;;;;;;;4.30;4.00;;;;;;;;;;4987859;28;20030;-65
2022/07/06 10:28:41;;;;;;;4.90;3.63;;;;;;;;;;4986481;28;20038;-65
2022/07/06 10:31:06;;;;;;;4.13;3.83;;;;;;;;;;4988007;28;20026;-65
2022/07/06 10:33:33;;;;;;;3.83;3.63;;;;;;;;;;4988760;28;20038;-65
2022/07/06 10:35:58;;;;;;;5.32;3.45;;;;;;;;;;4989608;28;20157;-65
2022/07/06 10:38:33;;;;;;;4.60;3.33;;;;;;;;;;4988872;28;20040;-66
2022/07/06 10:41:06;;;;;;;3.42;2.97;;;;;;;;;;4987710;28;20027;-66
2022/07/06 10:43:36;;;;;;;3.22;3.03;;;;;;;;;;4988555;28;20034;-65
2022/07/06 10:46:11;;;;;;;3.70;3.50;;;;;;;;;;4987283;28;20033;-65
2022/07/06 10:48:39;;;;;;;4.07;3.67;;;;;;;;;;4987491;28;20475;-66
2022/07/06 10:51:05;;;;;;;4.13;3.70;;;;;;;;;;4986768;28;20117;-65
2022/07/06 10:53:35;;;;;;;5.00;4.10;;;;;;;;;;4986931;28;20037;-64
2022/07/06 10:56:04;;;;;;;4.45;3.85;;;;;;;;;;4987058;28;20026;-66
2022/07/06 10:58:42;;;;;;;3.40;3.08;;;;;;;;;;4987820;28;20077;-64
2022/07/06 11:01:10;;;;;;;3.72;3.38;;;;;;;;;;5004522;28;20033;-64
2022/07/06 11:03:46;;;;;;;4.07;3.70;;;;;;;;;;4988084;28;20030;-66
2022/07/06 11:06:13;;;;;;;3.97;3.58;;;;;;;;;;4988000;28;20109;-65
2022/07/06 11:08:48;;;;;;;3.08;2.88;;;;;;;;;;4991953;28;20464;-66
2022/07/06 11:11:23;;;;;;;4.70;3.08;;;;;;;;;;4992737;28;20041;-65
2022/07/06 11:13:50;;;;;;;4.00;3.60;;;;;;;;;;5005779;28;20104;-66
2022/07/06 11:16:16;;;;;;;6.18;3.88;;;;;;;;;;4992504;28;20130;-66
2022/07/06 11:18:46;;;;;;;4.45;3.92;;;;;;;;;;4990984;28;20026;-65
2022/07/06 11:21:23;;;;;;;5.35;3.92;;;;;;;;;;4991620;28;20472;-66
2022/07/06 11:23:50;;;;;;;3.83;3.63;;;;;;;;;;4990294;28;20038;-64
2022/07/06 11:26:15;;;;;;;3.95;3.42;;;;;;;;;;4992234;28;20061;-65
2022/07/06 11:28:40;;;;;;;2.80;2.58;;;;;;;;;;4991435;28;20175;-64
2022/07/06 11:31:06;;;;;;;2.53;2.33;;;;;;;;;;4990768;28;20030;-64
2022/07/06 11:33:32;;;;;;;2.10;2.00;;;;;;;;;;4991841;28;20037;-65
2022/07/06 11:36:20;;;;;;;2.50;2.30;;;;;;;;;;4991147;28;20071;-65
2022/07/06 11:38:48;;;;;;;2.95;2.50;;;;;;;;;;4979654;28;20516;-66
2022/07/06 11:41:14;;;;;;;3.40;2.97;;;;;;;;;;4992744;28;20081;-65
2022/07/06 11:43:44;;;;;;;2.40;2.30;;;;;;;;;;4989280;28;20042;-65
2022/07/06 11:46:19;;;;;;;4.57;2.25;;;;;;;;;;4989995;28;20042;-65
2022/07/06 11:48:48;;;;;;;2.72;2.53;;;;;;;;;;4990479;28;20029;-65
2022/07/06 11:51:13;;;;;;;2.85;2.60;;;;;;;;;;4990083;28;20436;-65
2022/07/06 11:53:42;;;;;;;2.75;2.65;;;;;;;;;;4989678;28;20038;-65
2022/07/06 11:56:08;;;;;;;2.78;2.67;;;;;;;;;;4989772;28;20079;-64
2022/07/06 11:58:34;;;;;;;3.67;2.58;;;;;;;;;;4989055;28;20030;-64
2022/07/06 12:01:07;;;;;;;2.45;2.25;;;;;;;;;;4987816;28;20057;-65
2022/07/06 12:03:32;;;;;;;2.40;2.30;;;;;;;;;;4990428;28;20121;-65
2022/07/06 12:05:58;;;;;;;4.05;1.95;;;;;;;;;;4991150;28;20039;-65
2022/07/06 12:08:23;;;;;;;2.58;2.22;;;;;;;;;;4989611;28;20630;-64
2022/07/06 12:10:49;;;;;;;2.20;2.10;;;;;;;;;;4988616;28;20050;-64
2022/07/06 12:13:14;;;;;;;3.65;2.40;;;;;;;;;;4990919;28;20026;-64
2022/07/06 12:15:39;;;;;;;2.10;2.00;;;;;;;;;;4991464;28;20041;-64
2022/07/06 12:18:04;;;;;;;2.25;1.77;;;;;;;;;;4989758;28;20032;-64
2022/07/06 12:20:30;;;;;;;2.65;2.15;;;;;;;;;;4988345;28;20453;-65
2022/07/06 12:23:05;;;;;;;2.20;2.10;;;;;;;;;;4991248;28;20030;-64
2022/07/06 12:25:34;;;;;;;2.70;2.40;;;;;;;;;;4990541;28;20129;-65
2022/07/06 12:28:00;;;;;;;2.20;2.10;;;;;;;;;;4989338;28;20038;-64
2022/07/06 12:30:25;;;;;;;3.45;2.90;;;;;;;;;;4990352;28;20608;-65
2022/07/06 12:33:09;;;;;;;3.10;2.58;;;;;;;;;;4989325;28;20026;-65
2022/07/06 12:35:34;;;;;;;2.63;2.53;;;;;;;;;;4989767;28;20133;-65
2022/07/06 12:38:00;;;;;;;2.67;2.47;;;;;;;;;;4989484;28;20018;-65
2022/07/06 12:40:27;;;;;;;2.95;2.30;;;;;;;;;;4989658;28;20434;-65
2022/07/06 12:42:52;;;;;;;2.90;2.70;;;;;;;;;;4990807;28;20030;-66
2022/07/06 12:45:18;;;;;;;3.35;2.95;;;;;;;;;;4989256;28;20539;-65
2022/07/06 12:47:57;;;;;;;3.90;3.55;;;;;;;;;;4989536;28;20030;-65
2022/07/06 12:50:29;;;;;;;3.90;3.67;;;;;;;;;;4989598;28;20453;-65
2022/07/06 12:52:55;;;;;;;4.82;3.40;;;;;;;;;;4990312;28;20034;-65
2022/07/06 12:55:25;;;;;;;3.83;3.55;;;;;;;;;;4989611;28;20498;-65
2022/07/06 12:57:51;;;;;;;3.25;2.97;;;;;;;;;;4988797;28;20026;-65
2022/07/06 13:00:17;;;;;;;4.15;3.75;;;;;;;;;;4988629;28;20492;-66
2022/07/06 13:02:44;;;;;;;3.80;3.45;;;;;;;;;;4987889;28;20022;-66
2022/07/06 13:05:10;;;;;;;4.25;3.95;;;;;;;;;;4987837;28;20499;-65
2022/07/06 13:07:36;;;;;;;4.90;3.22;;;;;;;;;;4991544;28;20128;-65
2022/07/06 13:10:04;;;;;;;3.30;3.10;;;;;;;;;;4989937;28;20496;-65
2022/07/06 13:12:30;;;;;;;3.67;2.95;;;;;;;;;;4989173;28;20031;-64
2022/07/06 13:14:55;;;;;;;3.95;3.72;;;;;;;;;;4987464;28;20037;-65
2022/07/06 13:17:20;;;;;;;3.90;3.50;;;;;;;;;;4990479;28;20112;-65
2022/07/06 13:19:46;;;;;;;4.43;3.00;;;;;;;;;;4989251;28;20026;-64
2022/07/06 13:22:11;;;;;;;2.85;2.65;;;;;;;;;;4989435;28;20033;-65
2022/07/06 13:24:36;;;;;;;3.38;3.17;;;;;;;;;;4988828;28;20066;-65
2022/07/06 13:27:02;;;;;;;3.78;3.40;;;;;;;;;;4988023;28;20034;-65
2022/07/06 13:29:27;;;;;;;3.72;3.42;;;;;;;;;;4988777;28;20366;-64
2022/07/06 13:31:52;;;;;;;3.40;3.20;;;;;;;;;;4989219;28;20025;-66
2022/07/06 13:34:18;;;;;;;4.45;3.92;;;;;;;;;;4989237;28;20546;-65
2022/07/06 13:36:43;;;;;;;4.05;3.75;;;;;;;;;;4988045;28;20022;-65
2022/07/06 13:39:09;;;;;;;3.53;3.33;;;;;;;;;;4989148;28;20088;-65
2022/07/06 13:41:34;;;;;;;3.20;2.95;;;;;;;;;;4989204;28;20487;-64
2022/07/06 13:44:00;;;;;;;3.85;3.55;;;;;;;;;;4987787;28;20038;-65
2022/07/06 13:46:26;;;;;;;3.65;3.42;;;;;;;;;;4988608;28;20347;-64
2022/07/06 13:48:51;;;;;;;3.85;2.78;;;;;;;;;;4987905;28;20776;-64
2022/07/06 13:51:17;;;;;;;3.10;2.90;;;;;;;;;;4987892;28;20034;-64
2022/07/06 13:53:42;;;;;;;2.97;2.70;;;;;;;;;;4987170;28;20044;-64
2022/07/06 13:56:08;;;;;;;4.13;2.72;;;;;;;;;;4987842;28;20045;-64
2022/07/06 13:58:33;;;;;;;3.17;2.92;;;;;;;;;;4988155;28;20038;-64
2022/07/06 14:00:58;;;;;;;3.58;2.72;;;;;;;;;;4989069;28;20601;-66
2022/07/06 14:03:29;;;;;;;2.28;2.17;;;;;;;;;;4989171;28;20026;-65
2022/07/06 14:05:55;;;;;;;3.08;2.85;;;;;;;;;;4987609;28;20038;-65
2022/07/06 14:08:20;;;;;;;3.08;2.70;;;;;;;;;;4977061;28;20279;-65
2022/07/06 14:10:45;;;;;;;2.33;2.10;;;;;;;;;;4987556;28;20546;-65
2022/07/06 14:13:11;;;;;;;2.58;2.47;;;;;;;;;;4988720;28;20437;-65
2022/07/06 14:15:36;;;;;;;2.90;2.80;;;;;;;;;;4988242;28;20045;-65
2022/07/06 14:18:01;;;;;;;3.80;2.50;;;;;;;;;;4988493;28;20515;-65
2022/07/06 14:20:26;;;;;;;2.58;2.47;;;;;;;;;;4987940;28;20085;-64
2022/07/06 14:22:52;;;;;;;2.67;2.50;;;;;;;;;;4987434;28;20022;-65
2022/07/06 14:25:17;;;;;;;2.80;2.60;;;;;;;;;;4989608;28;20526;-64
2022/07/06 14:27:43;;;;;;;3.10;3.00;;;;;;;;;;4987631;28;20040;-65
2022/07/06 14:30:09;;;;;;;2.50;2.13;;;;;;;;;;4988040;28;20547;-66
2022/07/06 14:32:34;;;;;;;3.00;2.70;;;;;;;;;;4987514;28;20033;-65
2022/07/06 14:34:59;;;;;;;2.88;2.67;;;;;;;;;;4988206;28;20042;-65
2022/07/06 14:37:24;;;;;;;3.20;3.03;;;;;;;;;;4986564;28;20389;-65
2022/07/06 14:39:50;;;;;;;2.50;2.40;;;;;;;;;;4990695;28;20034;-65